Accueil
METAR-TAF:

METAR-TAF

Aéroports :

Aéroport de Chambéry-Savoie

Chambery / Aix-Les-Bains, France

latitude: 45-39N, longitude: 005-53E, altitude: 235 m

Observation

Le bulletin a été fait il y a 28 minutes, à 13:30 UTC
Vent 8 kt de nord, variant entre nord/nord-ouest et nord/nord-est
Température 24°C
Humidité 41%
Pression 1015 hPa
Visibilité 10 km ou plus
pas de nuages en-dessous de 1500 mètres et pas de cumulonimbus.

METAR: LFLB 301330Z AUTO 01008KT 330V030 CAVOK 24/10 Q1015 NOSIG

Heure: 15:58 (13:58 UTC)

Prévision

Le bulletin a été fait il y a 2 heures et 58 minutes, à 11:00 UTC
Prévision valable du 30 à 12 UTC au 31 à 12 UTC
Vent 6 kt de nord
Visibilité 10 km ou plus
Quelques nuages à une hauteur de 5000 ft

TAF: LFLB 301100Z 3012/3112 35006KT 9999 FEW050

Observations et prévisions météorologiques de plus de 4000 aéroports (messages METAR et TAF).

Les stations disponibles sont représentées par des disques jaunes et rouges sur la carte.

Passer la souris dessus pour voir le nom de la station.

Cliquer dessus pour voir les observations et prévisions météorologiques.

Pour changer de carte: cliquez sur les boutons verts avec une croix noire pour zoomer, sur le bouton vert avec un tiret pour effectuer un zoom arrière, ou sur les flèches vertes pour les cartes adjacentes.


METAR-TAF: